sensor_id;sensor_type;location;lat;lon;timestamp;temperature;humidity
8860;DHT22;4466;50.948;4.832;2024-01-30T00:01:38;6.80;99.90
8860;DHT22;4466;50.948;4.832;2024-01-30T00:04:04;6.80;99.90
8860;DHT22;4466;50.948;4.832;2024-01-30T00:06:30;6.80;99.90
8860;DHT22;4466;50.948;4.832;2024-01-30T00:08:56;6.80;99.90
8860;DHT22;4466;50.948;4.832;2024-01-30T00:11:22;6.90;99.90
8860;DHT22;4466;50.948;4.832;2024-01-30T00:13:51;7.00;99.90
8860;DHT22;4466;50.948;4.832;2024-01-30T00:16:24;7.00;99.90
8860;DHT22;4466;50.948;4.832;2024-01-30T00:18:53;7.10;99.90
8860;DHT22;4466;50.948;4.832;2024-01-30T00:21:20;7.20;99.90
8860;DHT22;4466;50.948;4.832;2024-01-30T00:23:46;7.30;99.90
8860;DHT22;4466;50.948;4.832;2024-01-30T00:26:12;7.50;99.90
8860;DHT22;4466;50.948;4.832;2024-01-30T00:28:38;7.60;99.90
8860;DHT22;4466;50.948;4.832;2024-01-30T00:31:04;7.70;99.90
8860;DHT22;4466;50.948;4.832;2024-01-30T00:33:30;7.80;99.90
8860;DHT22;4466;50.948;4.832;2024-01-30T00:35:56;7.80;99.90
8860;DHT22;4466;50.948;4.832;2024-01-30T00:38:22;7.90;99.90
8860;DHT22;4466;50.948;4.832;2024-01-30T00:40:48;8.00;99.90
8860;DHT22;4466;50.948;4.832;2024-01-30T00:43:15;8.10;99.90
8860;DHT22;4466;50.948;4.832;2024-01-30T00:45:41;8.20;99.90
8860;DHT22;4466;50.948;4.832;2024-01-30T00:48:07;8.20;99.90
8860;DHT22;4466;50.948;4.832;2024-01-30T00:50:32;8.30;99.90
8860;DHT22;4466;50.948;4.832;2024-01-30T00:52:58;8.30;99.90
8860;DHT22;4466;50.948;4.832;2024-01-30T00:55:24;8.30;99.90
8860;DHT22;4466;50.948;4.832;2024-01-30T00:57:49;8.30;99.90
8860;DHT22;4466;50.948;4.832;2024-01-30T01:00:15;8.20;99.90
8860;DHT22;4466;50.948;4.832;2024-01-30T01:02:43;8.20;99.90
8860;DHT22;4466;50.948;4.832;2024-01-30T01:05:09;8.10;99.90
8860;DHT22;4466;50.948;4.832;2024-01-30T01:07:35;8.20;99.90
8860;DHT22;4466;50.948;4.832;2024-01-30T01:10:01;8.20;99.90
8860;DHT22;4466;50.948;4.832;2024-01-30T01:12:27;8.10;99.90
8860;DHT22;4466;50.948;4.832;2024-01-30T01:14:53;8.10;99.90
8860;DHT22;4466;50.948;4.832;2024-01-30T01:17:19;8.10;99.90
8860;DHT22;4466;50.948;4.832;2024-01-30T01:19:45;8.10;99.90
8860;DHT22;4466;50.948;4.832;2024-01-30T01:22:11;8.10;99.90
8860;DHT22;4466;50.948;4.832;2024-01-30T01:24:37;8.10;99.90
8860;DHT22;4466;50.948;4.832;2024-01-30T01:27:03;8.10;99.90
8860;DHT22;4466;50.948;4.832;2024-01-30T01:29:29;8.20;99.90
8860;DHT22;4466;50.948;4.832;2024-01-30T01:31:55;8.20;99.90
8860;DHT22;4466;50.948;4.832;2024-01-30T01:34:21;8.20;99.90
8860;DHT22;4466;50.948;4.832;2024-01-30T01:36:48;8.30;99.90
8860;DHT22;4466;50.948;4.832;2024-01-30T01:39:14;8.30;99.90
8860;DHT22;4466;50.948;4.832;2024-01-30T01:41:39;8.30;99.90
8860;DHT22;4466;50.948;4.832;2024-01-30T01:44:05;8.30;99.90
8860;DHT22;4466;50.948;4.832;2024-01-30T01:46:33;8.30;99.90
8860;DHT22;4466;50.948;4.832;2024-01-30T01:49:01;8.40;99.90
8860;DHT22;4466;50.948;4.832;2024-01-30T01:51:28;8.40;99.90
8860;DHT22;4466;50.948;4.832;2024-01-30T01:53:55;8.50;99.90
8860;DHT22;4466;50.948;4.832;2024-01-30T01:56:27;8.50;99.90
8860;DHT22;4466;50.948;4.832;2024-01-30T01:58:55;8.50;99.90
8860;DHT22;4466;50.948;4.832;2024-01-30T02:01:21;8.40;99.90
8860;DHT22;4466;50.948;4.832;2024-01-30T02:03:48;8.40;99.90
8860;DHT22;4466;50.948;4.832;2024-01-30T02:06:15;8.30;99.90
8860;DHT22;4466;50.948;4.832;2024-01-30T02:08:42;8.30;99.90
8860;DHT22;4466;50.948;4.832;2024-01-30T02:11:08;8.30;99.90
8860;DHT22;4466;50.948;4.832;2024-01-30T02:13:35;8.30;99.90
8860;DHT22;4466;50.948;4.832;2024-01-30T02:16:04;8.30;99.90
8860;DHT22;4466;50.948;4.832;2024-01-30T02:18:30;8.20;99.90
8860;DHT22;4466;50.948;4.832;2024-01-30T02:20:58;8.20;99.90
8860;DHT22;4466;50.948;4.832;2024-01-30T02:23:27;8.20;99.90
8860;DHT22;4466;50.948;4.832;2024-01-30T02:25:53;8.20;99.90
8860;DHT22;4466;50.948;4.832;2024-01-30T02:28:19;8.20;99.90
8860;DHT22;4466;50.948;4.832;2024-01-30T02:30:46;8.20;99.90
8860;DHT22;4466;50.948;4.832;2024-01-30T02:33:12;8.10;99.90
8860;DHT22;4466;50.948;4.832;2024-01-30T02:35:39;8.10;99.90
8860;DHT22;4466;50.948;4.832;2024-01-30T02:38:08;8.10;99.90
8860;DHT22;4466;50.948;4.832;2024-01-30T02:40:34;8.00;99.90
8860;DHT22;4466;50.948;4.832;2024-01-30T02:43:01;8.00;99.90
8860;DHT22;4466;50.948;4.832;2024-01-30T02:45:26;7.90;99.90
8860;DHT22;4466;50.948;4.832;2024-01-30T02:47:52;7.90;99.90
8860;DHT22;4466;50.948;4.832;2024-01-30T02:50:17;7.80;99.90
8860;DHT22;4466;50.948;4.832;2024-01-30T02:52:43;7.80;99.90
8860;DHT22;4466;50.948;4.832;2024-01-30T02:55:10;7.90;99.90
8860;DHT22;4466;50.948;4.832;2024-01-30T02:57:36;7.90;99.90
8860;DHT22;4466;50.948;4.832;2024-01-30T03:00:02;7.90;99.90
8860;DHT22;4466;50.948;4.832;2024-01-30T03:02:29;7.90;99.90
8860;DHT22;4466;50.948;4.832;2024-01-30T03:04:55;7.90;99.90
8860;DHT22;4466;50.948;4.832;2024-01-30T03:07:20;8.00;99.90
8860;DHT22;4466;50.948;4.832;2024-01-30T03:09:48;8.00;99.90
8860;DHT22;4466;50.948;4.832;2024-01-30T03:12:13;8.00;99.90
8860;DHT22;4466;50.948;4.832;2024-01-30T03:14:39;8.00;99.90
8860;DHT22;4466;50.948;4.832;2024-01-30T03:17:05;8.10;99.90
8860;DHT22;4466;50.948;4.832;2024-01-30T03:19:30;8.10;99.90
8860;DHT22;4466;50.948;4.832;2024-01-30T03:21:56;8.20;99.90
8860;DHT22;4466;50.948;4.832;2024-01-30T03:24:22;8.30;99.90
8860;DHT22;4466;50.948;4.832;2024-01-30T03:26:47;8.40;99.90
8860;DHT22;4466;50.948;4.832;2024-01-30T03:29:13;8.50;99.90
8860;DHT22;4466;50.948;4.832;2024-01-30T03:31:39;8.70;99.90
8860;DHT22;4466;50.948;4.832;2024-01-30T03:34:05;8.80;99.90
8860;DHT22;4466;50.948;4.832;2024-01-30T03:36:30;8.90;99.90
8860;DHT22;4466;50.948;4.832;2024-01-30T03:38:58;8.90;99.90
8860;DHT22;4466;50.948;4.832;2024-01-30T03:41:24;8.90;99.90
8860;DHT22;4466;50.948;4.832;2024-01-30T03:43:50;8.90;99.90
8860;DHT22;4466;50.948;4.832;2024-01-30T03:46:16;8.90;99.90
8860;DHT22;4466;50.948;4.832;2024-01-30T03:48:42;8.90;99.90
8860;DHT22;4466;50.948;4.832;2024-01-30T03:51:07;8.90;99.90
8860;DHT22;4466;50.948;4.832;2024-01-30T03:53:33;8.90;99.90
8860;DHT22;4466;50.948;4.832;2024-01-30T03:55:59;9.00;99.90
8860;DHT22;4466;50.948;4.832;2024-01-30T03:58:25;9.10;99.90
8860;DHT22;4466;50.948;4.832;2024-01-30T04:00:51;9.20;99.90
8860;DHT22;4466;50.948;4.832;2024-01-30T04:03:17;9.20;99.90
8860;DHT22;4466;50.948;4.832;2024-01-30T04:05:43;9.30;99.90
8860;DHT22;4466;50.948;4.832;2024-01-30T04:08:09;9.30;99.90
8860;DHT22;4466;50.948;4.832;2024-01-30T04:10:34;9.40;99.90
8860;DHT22;4466;50.948;4.832;2024-01-30T04:13:00;9.40;99.90
8860;DHT22;4466;50.948;4.832;2024-01-30T04:15:26;9.40;99.90
8860;DHT22;4466;50.948;4.832;2024-01-30T04:17:52;9.40;99.90
8860;DHT22;4466;50.948;4.832;2024-01-30T04:20:18;9.40;99.90
8860;DHT22;4466;50.948;4.832;2024-01-30T04:22:44;9.40;99.90
8860;DHT22;4466;50.948;4.832;2024-01-30T04:25:11;9.40;99.90
8860;DHT22;4466;50.948;4.832;2024-01-30T04:27:37;9.40;99.90
8860;DHT22;4466;50.948;4.832;2024-01-30T04:30:03;9.40;99.90
8860;DHT22;4466;50.948;4.832;2024-01-30T04:32:29;9.30;99.90
8860;DHT22;4466;50.948;4.832;2024-01-30T04:34:55;9.30;99.90
8860;DHT22;4466;50.948;4.832;2024-01-30T04:37:20;9.30;99.90
8860;DHT22;4466;50.948;4.832;2024-01-30T04:39:46;9.40;99.90
8860;DHT22;4466;50.948;4.832;2024-01-30T04:42:12;9.50;99.90
8860;DHT22;4466;50.948;4.832;2024-01-30T04:44:37;9.60;99.90
8860;DHT22;4466;50.948;4.832;2024-01-30T04:47:03;9.70;99.90
8860;DHT22;4466;50.948;4.832;2024-01-30T04:49:30;9.80;99.90
8860;DHT22;4466;50.948;4.832;2024-01-30T04:51:56;9.80;99.90
8860;DHT22;4466;50.948;4.832;2024-01-30T04:54:22;9.80;99.90
8860;DHT22;4466;50.948;4.832;2024-01-30T04:56:47;9.90;99.90
8860;DHT22;4466;50.948;4.832;2024-01-30T04:59:13;9.90;99.90
8860;DHT22;4466;50.948;4.832;2024-01-30T05:01:39;9.90;99.90
8860;DHT22;4466;50.948;4.832;2024-01-30T05:04:07;9.90;99.90
8860;DHT22;4466;50.948;4.832;2024-01-30T05:06:33;9.90;99.90
8860;DHT22;4466;50.948;4.832;2024-01-30T05:08:58;9.90;99.90
8860;DHT22;4466;50.948;4.832;2024-01-30T05:11:24;10.00;99.90
8860;DHT22;4466;50.948;4.832;2024-01-30T05:13:50;10.00;99.90
8860;DHT22;4466;50.948;4.832;2024-01-30T05:16:15;10.10;99.90
8860;DHT22;4466;50.948;4.832;2024-01-30T05:18:41;10.10;99.90
8860;DHT22;4466;50.948;4.832;2024-01-30T05:21:06;10.00;99.90
8860;DHT22;4466;50.948;4.832;2024-01-30T05:23:32;10.00;99.90
8860;DHT22;4466;50.948;4.832;2024-01-30T05:25:58;10.00;99.90
8860;DHT22;4466;50.948;4.832;2024-01-30T05:28:26;10.00;99.90
8860;DHT22;4466;50.948;4.832;2024-01-30T05:30:52;10.00;99.90
8860;DHT22;4466;50.948;4.832;2024-01-30T05:33:17;10.10;99.90
8860;DHT22;4466;50.948;4.832;2024-01-30T05:35:43;10.10;99.90
8860;DHT22;4466;50.948;4.832;2024-01-30T05:38:08;10.10;99.90
8860;DHT22;4466;50.948;4.832;2024-01-30T05:40:34;10.10;99.90
8860;DHT22;4466;50.948;4.832;2024-01-30T05:43:00;10.00;99.90
8860;DHT22;4466;50.948;4.832;2024-01-30T05:45:27;10.00;99.90
8860;DHT22;4466;50.948;4.832;2024-01-30T05:47:53;10.10;99.90
8860;DHT22;4466;50.948;4.832;2024-01-30T05:50:19;10.20;99.90
8860;DHT22;4466;50.948;4.832;2024-01-30T05:52:45;10.20;99.90
8860;DHT22;4466;50.948;4.832;2024-01-30T05:55:11;10.30;99.90
8860;DHT22;4466;50.948;4.832;2024-01-30T05:57:38;10.30;99.90
8860;DHT22;4466;50.948;4.832;2024-01-30T06:00:04;10.20;99.90
8860;DHT22;4466;50.948;4.832;2024-01-30T06:02:31;10.20;99.90
8860;DHT22;4466;50.948;4.832;2024-01-30T06:04:56;10.20;99.90
8860;DHT22;4466;50.948;4.832;2024-01-30T06:07:23;10.20;99.90
8860;DHT22;4466;50.948;4.832;2024-01-30T06:09:48;10.10;99.90
8860;DHT22;4466;50.948;4.832;2024-01-30T06:12:14;10.10;99.90
8860;DHT22;4466;50.948;4.832;2024-01-30T06:14:39;10.10;99.90
8860;DHT22;4466;50.948;4.832;2024-01-30T06:17:08;10.00;99.90
8860;DHT22;4466;50.948;4.832;2024-01-30T06:19:33;10.10;99.90
8860;DHT22;4466;50.948;4.832;2024-01-30T06:21:59;10.10;99.90
8860;DHT22;4466;50.948;4.832;2024-01-30T06:24:25;10.10;99.90
8860;DHT22;4466;50.948;4.832;2024-01-30T06:26:50;10.00;99.90
8860;DHT22;4466;50.948;4.832;2024-01-30T06:29:16;10.00;99.90
8860;DHT22;4466;50.948;4.832;2024-01-30T06:31:42;10.10;99.90
8860;DHT22;4466;50.948;4.832;2024-01-30T06:34:09;10.10;99.90
8860;DHT22;4466;50.948;4.832;2024-01-30T06:36:38;10.10;99.90
8860;DHT22;4466;50.948;4.832;2024-01-30T06:39:06;10.10;99.90
8860;DHT22;4466;50.948;4.832;2024-01-30T06:41:32;10.10;99.90
8860;DHT22;4466;50.948;4.832;2024-01-30T06:43:58;10.20;99.90
8860;DHT22;4466;50.948;4.832;2024-01-30T06:46:23;10.20;99.90
8860;DHT22;4466;50.948;4.832;2024-01-30T06:48:49;10.20;99.90
8860;DHT22;4466;50.948;4.832;2024-01-30T06:51:15;10.10;99.90
8860;DHT22;4466;50.948;4.832;2024-01-30T06:53:40;10.10;99.90
8860;DHT22;4466;50.948;4.832;2024-01-30T06:56:06;10.00;99.90
8860;DHT22;4466;50.948;4.832;2024-01-30T06:58:32;10.00;99.90
8860;DHT22;4466;50.948;4.832;2024-01-30T07:00:58;10.00;99.90
8860;DHT22;4466;50.948;4.832;2024-01-30T07:03:24;10.00;99.90
8860;DHT22;4466;50.948;4.832;2024-01-30T07:05:50;10.00;99.90
8860;DHT22;4466;50.948;4.832;2024-01-30T07:08:16;9.90;99.90
8860;DHT22;4466;50.948;4.832;2024-01-30T07:10:44;9.90;99.90
8860;DHT22;4466;50.948;4.832;2024-01-30T07:13:11;9.90;99.90
8860;DHT22;4466;50.948;4.832;2024-01-30T07:15:37;9.90;99.90
8860;DHT22;4466;50.948;4.832;2024-01-30T07:18:03;9.90;99.90
8860;DHT22;4466;50.948;4.832;2024-01-30T07:20:30;9.90;99.90
8860;DHT22;4466;50.948;4.832;2024-01-30T07:22:57;9.90;99.90
8860;DHT22;4466;50.948;4.832;2024-01-30T07:25:23;9.90;99.90
8860;DHT22;4466;50.948;4.832;2024-01-30T07:27:55;9.90;99.90
8860;DHT22;4466;50.948;4.832;2024-01-30T07:30:21;9.80;99.90
8860;DHT22;4466;50.948;4.832;2024-01-30T07:32:48;9.80;99.90
8860;DHT22;4466;50.948;4.832;2024-01-30T07:35:14;9.80;99.90
8860;DHT22;4466;50.948;4.832;2024-01-30T07:37:40;9.80;99.90
8860;DHT22;4466;50.948;4.832;2024-01-30T07:40:06;9.80;99.90
8860;DHT22;4466;50.948;4.832;2024-01-30T07:42:33;9.80;99.90
8860;DHT22;4466;50.948;4.832;2024-01-30T07:44:59;9.90;99.90
8860;DHT22;4466;50.948;4.832;2024-01-30T07:47:25;9.90;99.90
8860;DHT22;4466;50.948;4.832;2024-01-30T07:49:51;9.90;99.90
8860;DHT22;4466;50.948;4.832;2024-01-30T07:52:16;9.90;99.90
8860;DHT22;4466;50.948;4.832;2024-01-30T07:54:49;9.90;99.90
8860;DHT22;4466;50.948;4.832;2024-01-30T07:57:15;9.90;99.90
8860;DHT22;4466;50.948;4.832;2024-01-30T07:59:42;9.80;99.90
8860;DHT22;4466;50.948;4.832;2024-01-30T08:02:10;9.90;99.90
8860;DHT22;4466;50.948;4.832;2024-01-30T08:04:35;9.90;99.90
8860;DHT22;4466;50.948;4.832;2024-01-30T08:07:01;10.00;99.90
8860;DHT22;4466;50.948;4.832;2024-01-30T08:09:27;10.10;99.90
8860;DHT22;4466;50.948;4.832;2024-01-30T08:11:52;10.30;99.90
8860;DHT22;4466;50.948;4.832;2024-01-30T08:14:18;10.30;99.90
8860;DHT22;4466;50.948;4.832;2024-01-30T08:16:44;10.50;99.90
8860;DHT22;4466;50.948;4.832;2024-01-30T08:19:14;10.60;99.90
8860;DHT22;4466;50.948;4.832;2024-01-30T08:21:40;10.60;99.90
8860;DHT22;4466;50.948;4.832;2024-01-30T08:24:06;10.70;99.90
8860;DHT22;4466;50.948;4.832;2024-01-30T08:26:33;10.70;99.90
8860;DHT22;4466;50.948;4.832;2024-01-30T08:28:59;10.90;99.90
8860;DHT22;4466;50.948;4.832;2024-01-30T08:31:24;10.90;99.90
8860;DHT22;4466;50.948;4.832;2024-01-30T08:33:50;10.90;99.90
8860;DHT22;4466;50.948;4.832;2024-01-30T08:36:16;11.00;99.90
8860;DHT22;4466;50.948;4.832;2024-01-30T08:38:42;11.00;99.90
8860;DHT22;4466;50.948;4.832;2024-01-30T08:41:08;11.10;99.90
8860;DHT22;4466;50.948;4.832;2024-01-30T08:43:34;11.10;99.90
8860;DHT22;4466;50.948;4.832;2024-01-30T08:46:00;11.10;99.90
8860;DHT22;4466;50.948;4.832;2024-01-30T08:48:26;11.20;99.90
8860;DHT22;4466;50.948;4.832;2024-01-30T08:50:52;11.30;99.90
8860;DHT22;4466;50.948;4.832;2024-01-30T08:53:17;11.30;99.90
8860;DHT22;4466;50.948;4.832;2024-01-30T08:55:44;11.30;99.90
8860;DHT22;4466;50.948;4.832;2024-01-30T08:58:09;11.30;99.90
8860;DHT22;4466;50.948;4.832;2024-01-30T09:00:35;11.30;99.90
8860;DHT22;4466;50.948;4.832;2024-01-30T09:03:01;11.30;99.90
8860;DHT22;4466;50.948;4.832;2024-01-30T09:05:27;11.40;99.90
8860;DHT22;4466;50.948;4.832;2024-01-30T09:07:52;11.40;99.90
8860;DHT22;4466;50.948;4.832;2024-01-30T09:10:19;11.40;99.90
8860;DHT22;4466;50.948;4.832;2024-01-30T09:12:44;11.50;99.90
8860;DHT22;4466;50.948;4.832;2024-01-30T09:15:10;11.50;99.90
8860;DHT22;4466;50.948;4.832;2024-01-30T09:17:36;11.50;99.90
8860;DHT22;4466;50.948;4.832;2024-01-30T09:20:01;11.60;99.90
8860;DHT22;4466;50.948;4.832;2024-01-30T09:22:27;11.60;99.90
8860;DHT22;4466;50.948;4.832;2024-01-30T09:24:53;11.60;99.90
8860;DHT22;4466;50.948;4.832;2024-01-30T09:27:18;11.70;99.90
8860;DHT22;4466;50.948;4.832;2024-01-30T09:29:44;11.70;99.90
8860;DHT22;4466;50.948;4.832;2024-01-30T09:32:10;11.70;99.90
8860;DHT22;4466;50.948;4.832;2024-01-30T09:34:35;11.70;99.90
8860;DHT22;4466;50.948;4.832;2024-01-30T09:37:01;11.70;99.90
8860;DHT22;4466;50.948;4.832;2024-01-30T09:39:27;11.70;99.90
8860;DHT22;4466;50.948;4.832;2024-01-30T09:42:02;11.70;99.90
8860;DHT22;4466;50.948;4.832;2024-01-30T09:44:30;11.70;99.90
8860;DHT22;4466;50.948;4.832;2024-01-30T09:46:56;11.70;99.90
8860;DHT22;4466;50.948;4.832;2024-01-30T09:49:30;11.70;99.90
8860;DHT22;4466;50.948;4.832;2024-01-30T09:51:56;11.70;99.90
8860;DHT22;4466;50.948;4.832;2024-01-30T09:54:23;11.70;99.90
8860;DHT22;4466;50.948;4.832;2024-01-30T09:56:48;11.70;99.90
8860;DHT22;4466;50.948;4.832;2024-01-30T09:59:14;11.70;99.90
8860;DHT22;4466;50.948;4.832;2024-01-30T10:01:40;11.80;99.90
8860;DHT22;4466;50.948;4.832;2024-01-30T10:04:07;11.80;99.90
8860;DHT22;4466;50.948;4.832;2024-01-30T10:06:33;11.90;99.90
8860;DHT22;4466;50.948;4.832;2024-01-30T10:08:59;11.90;99.90
8860;DHT22;4466;50.948;4.832;2024-01-30T10:11:25;12.00;99.90
8860;DHT22;4466;50.948;4.832;2024-01-30T10:13:50;11.90;99.90
8860;DHT22;4466;50.948;4.832;2024-01-30T10:16:16;12.00;99.90
8860;DHT22;4466;50.948;4.832;2024-01-30T10:18:42;12.00;99.90
8860;DHT22;4466;50.948;4.832;2024-01-30T10:21:08;12.00;99.90
8860;DHT22;4466;50.948;4.832;2024-01-30T10:23:35;12.00;99.90
8860;DHT22;4466;50.948;4.832;2024-01-30T10:26:03;11.90;99.90
8860;DHT22;4466;50.948;4.832;2024-01-30T10:28:29;11.90;99.90
8860;DHT22;4466;50.948;4.832;2024-01-30T10:30:59;11.90;99.90
8860;DHT22;4466;50.948;4.832;2024-01-30T10:33:26;11.90;99.90
8860;DHT22;4466;50.948;4.832;2024-01-30T10:36:04;12.00;99.90
8860;DHT22;4466;50.948;4.832;2024-01-30T10:38:31;12.00;99.90
8860;DHT22;4466;50.948;4.832;2024-01-30T10:40:58;12.00;99.90
8860;DHT22;4466;50.948;4.832;2024-01-30T10:43:30;12.00;99.90
8860;DHT22;4466;50.948;4.832;2024-01-30T10:45:57;12.00;99.90
8860;DHT22;4466;50.948;4.832;2024-01-30T10:48:30;12.10;99.90
8860;DHT22;4466;50.948;4.832;2024-01-30T10:50:57;12.10;99.90
8860;DHT22;4466;50.948;4.832;2024-01-30T10:53:25;12.10;99.90
8860;DHT22;4466;50.948;4.832;2024-01-30T10:55:51;12.10;99.90
8860;DHT22;4466;50.948;4.832;2024-01-30T10:58:18;12.10;99.90
8860;DHT22;4466;50.948;4.832;2024-01-30T11:00:44;12.10;99.90
8860;DHT22;4466;50.948;4.832;2024-01-30T11:03:11;12.10;99.90
8860;DHT22;4466;50.948;4.832;2024-01-30T11:05:40;12.00;99.90
8860;DHT22;4466;50.948;4.832;2024-01-30T11:08:13;12.10;99.90
8860;DHT22;4466;50.948;4.832;2024-01-30T11:10:48;12.10;99.90
8860;DHT22;4466;50.948;4.832;2024-01-30T11:13:14;12.10;99.90
8860;DHT22;4466;50.948;4.832;2024-01-30T11:15:40;12.10;99.90
8860;DHT22;4466;50.948;4.832;2024-01-30T11:18:06;12.10;99.90
8860;DHT22;4466;50.948;4.832;2024-01-30T11:20:32;12.10;99.90
8860;DHT22;4466;50.948;4.832;2024-01-30T11:22:58;12.10;99.90
8860;DHT22;4466;50.948;4.832;2024-01-30T11:25:25;12.10;99.90
8860;DHT22;4466;50.948;4.832;2024-01-30T11:27:55;12.20;99.90
8860;DHT22;4466;50.948;4.832;2024-01-30T11:30:30;12.20;99.90
8860;DHT22;4466;50.948;4.832;2024-01-30T11:33:14;12.20;99.90
8860;DHT22;4466;50.948;4.832;2024-01-30T11:35:41;12.20;99.90
8860;DHT22;4466;50.948;4.832;2024-01-30T11:38:08;12.20;99.90
8860;DHT22;4466;50.948;4.832;2024-01-30T11:40:37;12.30;99.90
8860;DHT22;4466;50.948;4.832;2024-01-30T11:43:05;12.30;99.90
8860;DHT22;4466;50.948;4.832;2024-01-30T11:45:31;12.20;99.90
8860;DHT22;4466;50.948;4.832;2024-01-30T11:47:58;12.20;99.90
8860;DHT22;4466;50.948;4.832;2024-01-30T11:50:25;12.10;99.90
8860;DHT22;4466;50.948;4.832;2024-01-30T11:52:51;12.10;99.90
8860;DHT22;4466;50.948;4.832;2024-01-30T11:55:17;12.00;99.90
8860;DHT22;4466;50.948;4.832;2024-01-30T11:57:44;12.00;99.90
8860;DHT22;4466;50.948;4.832;2024-01-30T12:00:17;12.00;99.90
8860;DHT22;4466;50.948;4.832;2024-01-30T12:02:44;12.00;99.90
8860;DHT22;4466;50.948;4.832;2024-01-30T12:05:14;12.00;99.90
8860;DHT22;4466;50.948;4.832;2024-01-30T12:07:40;11.90;99.90
8860;DHT22;4466;50.948;4.832;2024-01-30T12:10:08;11.90;99.90
8860;DHT22;4466;50.948;4.832;2024-01-30T12:12:35;11.90;99.90
8860;DHT22;4466;50.948;4.832;2024-01-30T12:15:01;11.90;99.90
8860;DHT22;4466;50.948;4.832;2024-01-30T12:17:31;11.80;99.90
8860;DHT22;4466;50.948;4.832;2024-01-30T12:20:10;11.70;99.90
8860;DHT22;4466;50.948;4.832;2024-01-30T12:22:40;11.70;99.90
8860;DHT22;4466;50.948;4.832;2024-01-30T12:25:14;11.70;99.90
8860;DHT22;4466;50.948;4.832;2024-01-30T12:27:42;11.60;99.90
8860;DHT22;4466;50.948;4.832;2024-01-30T12:30:14;11.70;99.90
8860;DHT22;4466;50.948;4.832;2024-01-30T12:32:47;11.70;99.90
8860;DHT22;4466;50.948;4.832;2024-01-30T12:35:16;11.70;99.90
8860;DHT22;4466;50.948;4.832;2024-01-30T12:37:44;11.80;99.90
8860;DHT22;4466;50.948;4.832;2024-01-30T12:40:11;11.80;99.90
8860;DHT22;4466;50.948;4.832;2024-01-30T12:42:38;11.90;99.90
8860;DHT22;4466;50.948;4.832;2024-01-30T12:45:05;12.00;99.90
8860;DHT22;4466;50.948;4.832;2024-01-30T12:47:31;12.10;99.90
8860;DHT22;4466;50.948;4.832;2024-01-30T12:49:57;12.20;99.90
8860;DHT22;4466;50.948;4.832;2024-01-30T12:52:23;12.30;99.90
8860;DHT22;4466;50.948;4.832;2024-01-30T12:54:49;12.40;99.90
8860;DHT22;4466;50.948;4.832;2024-01-30T12:57:15;12.40;99.90
8860;DHT22;4466;50.948;4.832;2024-01-30T12:59:42;12.40;99.90
8860;DHT22;4466;50.948;4.832;2024-01-30T13:02:07;12.50;99.90
8860;DHT22;4466;50.948;4.832;2024-01-30T13:04:33;12.30;99.90
8860;DHT22;4466;50.948;4.832;2024-01-30T13:06:59;12.20;99.90
8860;DHT22;4466;50.948;4.832;2024-01-30T13:09:26;12.30;99.90
8860;DHT22;4466;50.948;4.832;2024-01-30T13:11:52;12.00;99.90
8860;DHT22;4466;50.948;4.832;2024-01-30T13:14:18;12.00;99.90
8860;DHT22;4466;50.948;4.832;2024-01-30T13:16:44;12.00;99.90
8860;DHT22;4466;50.948;4.832;2024-01-30T13:19:10;12.00;99.90
8860;DHT22;4466;50.948;4.832;2024-01-30T13:21:35;12.00;99.90
8860;DHT22;4466;50.948;4.832;2024-01-30T13:24:01;12.10;99.90
8860;DHT22;4466;50.948;4.832;2024-01-30T13:26:27;12.20;99.90
8860;DHT22;4466;50.948;4.832;2024-01-30T13:28:53;12.40;99.90
8860;DHT22;4466;50.948;4.832;2024-01-30T13:31:18;12.40;99.90
8860;DHT22;4466;50.948;4.832;2024-01-30T13:33:44;12.30;99.90
8860;DHT22;4466;50.948;4.832;2024-01-30T13:36:11;12.10;99.90
8860;DHT22;4466;50.948;4.832;2024-01-30T13:38:37;12.00;99.90
8860;DHT22;4466;50.948;4.832;2024-01-30T13:41:03;11.90;99.90
8860;DHT22;4466;50.948;4.832;2024-01-30T13:43:29;11.80;99.90
8860;DHT22;4466;50.948;4.832;2024-01-30T13:45:55;11.70;99.90
8860;DHT22;4466;50.948;4.832;2024-01-30T13:48:20;11.70;99.90
8860;DHT22;4466;50.948;4.832;2024-01-30T13:50:47;11.70;99.90
8860;DHT22;4466;50.948;4.832;2024-01-30T13:53:13;11.70;99.90
8860;DHT22;4466;50.948;4.832;2024-01-30T13:55:38;11.70;99.90
8860;DHT22;4466;50.948;4.832;2024-01-30T13:58:05;11.60;99.90
8860;DHT22;4466;50.948;4.832;2024-01-30T14:00:31;11.50;99.90
8860;DHT22;4466;50.948;4.832;2024-01-30T14:02:56;11.50;99.90
8860;DHT22;4466;50.948;4.832;2024-01-30T14:05:24;11.50;99.90
8860;DHT22;4466;50.948;4.832;2024-01-30T14:07:51;11.40;99.90
8860;DHT22;4466;50.948;4.832;2024-01-30T14:10:17;11.40;99.90
8860;DHT22;4466;50.948;4.832;2024-01-30T14:12:43;11.40;99.90
8860;DHT22;4466;50.948;4.832;2024-01-30T14:15:10;11.40;99.90
8860;DHT22;4466;50.948;4.832;2024-01-30T14:17:36;11.40;99.90
8860;DHT22;4466;50.948;4.832;2024-01-30T14:20:06;11.30;99.90
8860;DHT22;4466;50.948;4.832;2024-01-30T14:22:33;11.30;99.90
8860;DHT22;4466;50.948;4.832;2024-01-30T14:24:59;11.30;99.90
8860;DHT22;4466;50.948;4.832;2024-01-30T14:27:25;11.30;99.90
8860;DHT22;4466;50.948;4.832;2024-01-30T14:29:51;11.30;99.90
8860;DHT22;4466;50.948;4.832;2024-01-30T14:32:17;11.30;99.90
8860;DHT22;4466;50.948;4.832;2024-01-30T14:34:42;11.30;99.90
8860;DHT22;4466;50.948;4.832;2024-01-30T14:37:08;11.30;99.90
8860;DHT22;4466;50.948;4.832;2024-01-30T14:39:34;11.30;99.90
8860;DHT22;4466;50.948;4.832;2024-01-30T14:42:03;11.30;99.90
8860;DHT22;4466;50.948;4.832;2024-01-30T14:44:29;11.30;99.90
8860;DHT22;4466;50.948;4.832;2024-01-30T14:46:56;11.30;99.90
8860;DHT22;4466;50.948;4.832;2024-01-30T14:49:21;11.20;99.90
8860;DHT22;4466;50.948;4.832;2024-01-30T14:51:47;11.10;99.90
8860;DHT22;4466;50.948;4.832;2024-01-30T14:54:13;11.10;99.90
8860;DHT22;4466;50.948;4.832;2024-01-30T14:56:39;11.00;99.90
8860;DHT22;4466;50.948;4.832;2024-01-30T14:59:04;10.90;99.90
8860;DHT22;4466;50.948;4.832;2024-01-30T15:01:30;10.80;99.90
8860;DHT22;4466;50.948;4.832;2024-01-30T15:03:56;10.80;99.90
8860;DHT22;4466;50.948;4.832;2024-01-30T15:06:22;10.70;99.90
8860;DHT22;4466;50.948;4.832;2024-01-30T15:08:50;10.60;99.90
8860;DHT22;4466;50.948;4.832;2024-01-30T15:11:16;10.60;99.90
8860;DHT22;4466;50.948;4.832;2024-01-30T15:13:41;10.60;99.90
8860;DHT22;4466;50.948;4.832;2024-01-30T15:16:07;10.60;99.90
8860;DHT22;4466;50.948;4.832;2024-01-30T15:18:33;10.60;99.90
8860;DHT22;4466;50.948;4.832;2024-01-30T15:20:59;10.50;99.90
8860;DHT22;4466;50.948;4.832;2024-01-30T15:23:25;10.50;99.90
8860;DHT22;4466;50.948;4.832;2024-01-30T15:25:51;10.50;99.90
8860;DHT22;4466;50.948;4.832;2024-01-30T15:28:16;10.40;99.90
8860;DHT22;4466;50.948;4.832;2024-01-30T15:30:42;10.40;99.90
8860;DHT22;4466;50.948;4.832;2024-01-30T15:33:12;10.30;99.90
8860;DHT22;4466;50.948;4.832;2024-01-30T15:35:37;10.30;99.90
8860;DHT22;4466;50.948;4.832;2024-01-30T15:38:05;10.30;99.90
8860;DHT22;4466;50.948;4.832;2024-01-30T15:40:34;10.20;99.90
8860;DHT22;4466;50.948;4.832;2024-01-30T15:43:00;10.20;99.90
8860;DHT22;4466;50.948;4.832;2024-01-30T15:45:26;10.20;99.90
8860;DHT22;4466;50.948;4.832;2024-01-30T15:47:51;10.20;99.90
8860;DHT22;4466;50.948;4.832;2024-01-30T15:50:17;10.10;99.90
8860;DHT22;4466;50.948;4.832;2024-01-30T15:52:43;10.10;99.90
8860;DHT22;4466;50.948;4.832;2024-01-30T15:55:08;10.10;99.90
8860;DHT22;4466;50.948;4.832;2024-01-30T15:57:34;10.10;99.90
8860;DHT22;4466;50.948;4.832;2024-01-30T16:00:00;10.10;99.90
8860;DHT22;4466;50.948;4.832;2024-01-30T16:02:26;10.10;99.90